createdAt,value
2019-01-19T00:02:35.028Z,74.08
2019-01-19T00:05:51.658Z,74.15
2019-01-19T00:08:38.728Z,74.32
2019-01-19T00:11:44.759Z,74.22
2019-01-19T00:14:54.053Z,74.77
2019-01-19T00:18:02.996Z,76.25
2019-01-19T00:21:04.040Z,76.26
2019-01-19T00:24:05.207Z,75.90
2019-01-19T00:27:17.980Z,75.75
2019-01-19T00:30:11.156Z,76.00
2019-01-19T00:32:49.327Z,76.62
2019-01-19T00:35:46.258Z,77.25
2019-01-19T00:39:02.339Z,77.19
2019-01-19T00:42:15.793Z,77.20
2019-01-19T00:45:15.219Z,76.21
2019-01-19T00:47:55.766Z,75.19
2019-01-19T00:51:00.977Z,74.57
2019-01-19T00:53:43.075Z,74.50
2019-01-19T00:56:45.795Z,74.05
2019-01-19T00:59:22.217Z,73.52
2019-01-19T01:02:24.389Z,73.12
2019-01-19T01:05:17.068Z,72.48
2019-01-19T01:08:02.320Z,72.10
2019-01-19T01:11:06.877Z,71.84
2019-01-19T01:14:05.215Z,71.98
2019-01-19T01:17:05.028Z,71.82
2019-01-19T01:20:30.703Z,72.32
2019-01-19T01:23:25.889Z,72.28
2019-01-19T01:26:41.782Z,72.20
2019-01-19T01:29:55.439Z,72.30
2019-01-19T01:32:43.395Z,72.08
2019-01-19T01:35:55.554Z,71.64
2019-01-19T01:38:48.489Z,71.76
2019-01-19T01:41:52.172Z,72.00
2019-01-19T01:44:42.950Z,72.45
2019-01-19T01:47:38.302Z,73.00
2019-01-19T01:50:25.588Z,73.52
2019-01-19T01:53:54.086Z,74.30
2019-01-19T01:56:23.632Z,74.92
2019-01-19T01:59:14.458Z,75.39
2019-01-19T02:02:06.653Z,75.49
2019-01-19T02:05:26.044Z,75.82
2019-01-19T02:08:41.055Z,75.81
2019-01-19T02:11:38.631Z,76.10
2019-01-19T02:14:57.947Z,76.71
2019-01-19T02:18:16.533Z,76.88
2019-01-19T02:20:56.140Z,76.63
2019-01-19T02:24:12.200Z,76.77
2019-01-19T02:27:23.860Z,76.82
2019-01-19T02:30:23.316Z,76.52
2019-01-19T02:33:15.209Z,76.47
2019-01-19T02:36:07.852Z,76.98
2019-01-19T02:39:20.125Z,77.75
2019-01-19T02:42:18.182Z,77.99
2019-01-19T02:45:19.913Z,77.82
2019-01-19T02:48:25.125Z,77.69
2019-01-19T02:51:16.041Z,78.41
2019-01-19T02:54:20.891Z,77.92
2019-01-19T02:57:34.665Z,76.64
2019-01-19T03:00:44.866Z,76.18
2019-01-19T03:03:40.374Z,76.15
2019-01-19T03:06:33.048Z,76.44
2019-01-19T03:09:33.103Z,76.32
2019-01-19T03:12:29.863Z,76.26
2019-01-19T03:15:52.423Z,76.41
2019-01-19T03:18:39.422Z,76.44
2019-01-19T03:21:45.048Z,75.20
2019-01-19T03:24:34.855Z,74.38
2019-01-19T03:27:29.478Z,75.70
2019-01-19T03:30:38.504Z,75.70
2019-01-19T03:33:36.599Z,75.64
2019-01-19T03:36:43.007Z,74.98
2019-01-19T03:40:11.372Z,74.25
2019-01-19T03:43:12.758Z,74.36
2019-01-19T03:46:28.367Z,74.85
2019-01-19T03:49:30.328Z,74.98
2019-01-19T03:52:37.814Z,73.41
2019-01-19T03:55:44.692Z,73.36
2019-01-19T03:58:48.164Z,73.35
2019-01-19T04:02:14.403Z,73.39
2019-01-19T04:05:08.461Z,73.11
2019-01-19T04:08:07.551Z,73.06
2019-01-19T04:11:08.698Z,73.04
2019-01-19T04:14:10.022Z,73.27
2019-01-19T04:17:19.490Z,73.58
2019-01-19T04:20:24.120Z,73.82
2019-01-19T04:22:57.600Z,75.02
2019-01-19T04:25:51.078Z,75.13
2019-01-19T04:28:22.853Z,75.26
2019-01-19T04:30:52.265Z,75.74
2019-01-19T04:33:21.652Z,76.02
2019-01-19T04:35:51.025Z,76.77
2019-01-19T04:38:20.387Z,77.18
2019-01-19T04:40:49.798Z,77.47
2019-01-19T04:43:19.188Z,78.14
2019-01-19T04:45:48.559Z,78.52
2019-01-19T04:48:19.570Z,79.11
2019-01-19T04:50:48.957Z,79.52
2019-01-19T04:53:18.354Z,80.22
2019-01-19T04:55:47.710Z,80.61
2019-01-19T04:58:17.126Z,80.64
2019-01-19T05:00:46.547Z,80.68
2019-01-19T05:03:15.935Z,81.17
2019-01-19T05:05:45.278Z,81.26
2019-01-19T05:08:14.631Z,80.98
2019-01-19T05:10:43.995Z,81.01
2019-01-19T05:13:13.343Z,80.86
2019-01-19T05:15:42.715Z,80.80
2019-01-19T05:18:12.275Z,80.83
2019-01-19T05:20:41.629Z,81.00
2019-01-19T05:23:11.034Z,81.04
2019-01-19T05:25:40.409Z,80.88
2019-01-19T05:28:09.798Z,80.37
2019-01-19T05:30:39.174Z,79.95
2019-01-19T05:33:08.545Z,79.79
2019-01-19T05:35:39.940Z,79.69
2019-01-19T05:38:09.325Z,79.80
2019-01-19T05:40:38.656Z,79.44
2019-01-19T05:43:08.045Z,79.49
2019-01-19T05:45:37.409Z,80.18
2019-01-19T05:48:07.454Z,80.61
2019-01-19T05:50:36.803Z,80.94
2019-01-19T05:53:06.158Z,80.87
2019-01-19T05:55:35.512Z,81.29
2019-01-19T05:58:04.898Z,81.26
2019-01-19T06:00:35.559Z,81.41
2019-01-19T06:03:05.527Z,81.44
2019-01-19T06:05:34.886Z,81.53
2019-01-19T06:08:04.352Z,81.47
2019-01-19T06:10:33.673Z,81.50
2019-01-19T06:13:03.085Z,81.36
2019-01-19T06:15:32.438Z,81.18
2019-01-19T06:18:01.841Z,81.18
2019-01-19T06:20:31.236Z,81.16
2019-01-19T06:23:00.686Z,80.84
2019-01-19T06:25:30.169Z,80.83
2019-01-19T06:27:59.639Z,80.69
2019-01-19T06:30:29.068Z,80.49
2019-01-19T06:32:58.479Z,80.24
2019-01-19T06:35:27.871Z,79.73
2019-01-19T06:37:57.254Z,79.21
2019-01-19T06:40:26.599Z,78.79
2019-01-19T06:42:55.964Z,78.60
2019-01-19T06:45:26.747Z,78.75
2019-01-19T06:47:56.069Z,78.56
2019-01-19T06:50:25.449Z,78.35
2019-01-19T06:52:54.825Z,78.28
2019-01-19T06:55:27.059Z,78.41
2019-01-19T06:57:57.339Z,78.25
2019-01-19T07:00:26.708Z,77.97
2019-01-19T07:02:56.144Z,77.81
2019-01-19T07:05:25.486Z,77.90
2019-01-19T07:07:54.892Z,77.95
2019-01-19T07:10:25.372Z,78.25
2019-01-19T07:12:54.737Z,78.24
2019-01-19T07:15:24.069Z,77.99
2019-01-19T07:17:53.546Z,78.08
2019-01-19T07:20:25.640Z,78.14
2019-01-19T07:22:55.038Z,77.85
2019-01-19T07:25:24.508Z,77.53
2019-01-19T07:27:53.842Z,77.52
2019-01-19T07:30:23.197Z,77.32
2019-01-19T07:32:52.518Z,77.16
2019-01-19T07:35:21.958Z,77.44
2019-01-19T07:37:51.435Z,77.23
2019-01-19T07:40:20.835Z,76.83
2019-01-19T07:42:54.129Z,76.90
2019-01-19T07:45:23.510Z,76.71
2019-01-19T07:47:52.902Z,76.88
2019-01-19T07:50:22.290Z,76.65
2019-01-19T07:52:51.653Z,76.69
2019-01-19T07:55:21.023Z,76.44
2019-01-19T07:57:50.451Z,76.86
2019-01-19T08:00:25.537Z,76.65
2019-01-19T08:02:55.139Z,76.62
2019-01-19T08:05:24.555Z,76.56
2019-01-19T08:07:53.934Z,76.41
2019-01-19T08:10:23.423Z,75.79
2019-01-19T08:12:52.905Z,75.67
2019-01-19T08:15:24.069Z,75.53
2019-01-19T08:17:53.584Z,75.47
2019-01-19T08:20:22.876Z,75.24
2019-01-19T08:22:52.334Z,75.38
2019-01-19T08:25:21.801Z,75.51
2019-01-19T08:27:53.501Z,74.99
2019-01-19T08:30:25.025Z,75.28
2019-01-19T08:32:54.553Z,74.77
2019-01-19T08:35:24.001Z,74.65
2019-01-19T08:37:53.372Z,74.43
2019-01-19T08:40:28.023Z,73.78
2019-01-19T08:43:19.413Z,74.30
2019-01-19T08:45:48.750Z,74.18
2019-01-19T08:48:20.546Z,73.96
2019-01-19T08:50:49.892Z,74.40
2019-01-19T08:53:19.338Z,74.47
2019-01-19T08:55:48.696Z,74.32
2019-01-19T08:58:18.412Z,74.07
2019-01-19T09:00:47.801Z,74.18
2019-01-19T09:03:17.327Z,74.03
2019-01-19T09:05:46.758Z,73.43
2019-01-19T09:08:16.135Z,73.33
2019-01-19T09:10:45.511Z,73.34
2019-01-19T09:13:14.855Z,73.45
2019-01-19T09:15:44.166Z,73.63
2019-01-19T09:18:13.540Z,73.88
2019-01-19T09:20:42.918Z,73.98
2019-01-19T09:23:17.868Z,73.69
2019-01-19T09:25:47.238Z,73.14
2019-01-19T09:28:16.742Z,72.56
2019-01-19T09:30:46.145Z,72.59
2019-01-19T09:33:15.523Z,71.75
2019-01-19T09:35:44.979Z,71.35
2019-01-19T09:38:14.344Z,71.38
2019-01-19T09:40:43.741Z,70.58
2019-01-19T09:43:13.075Z,68.32
2019-01-19T09:45:42.530Z,67.21
2019-01-19T09:48:11.884Z,66.50
2019-01-19T09:50:41.309Z,66.36
2019-01-19T09:53:10.691Z,66.38
2019-01-19T09:55:40.077Z,66.40
2019-01-19T09:58:09.690Z,66.81
2019-01-19T10:00:45.546Z,66.75
2019-01-19T10:03:10.259Z,67.00
2019-01-19T10:05:39.617Z,67.69
2019-01-19T10:08:08.962Z,67.04
2019-01-19T10:10:38.515Z,66.36
2019-01-19T10:13:07.902Z,66.24
2019-01-19T10:15:37.306Z,65.74
2019-01-19T10:18:06.703Z,65.46
2019-01-19T10:20:36.066Z,65.39
2019-01-19T10:23:05.477Z,64.46
2019-01-19T10:25:34.855Z,63.92
2019-01-19T10:28:07.784Z,63.16
2019-01-19T10:30:37.154Z,63.61
2019-01-19T10:33:07.774Z,63.80
2019-01-19T10:35:37.165Z,64.08
2019-01-19T10:38:06.518Z,64.78
2019-01-19T10:40:35.903Z,65.50
2019-01-19T10:43:05.881Z,65.93
2019-01-19T10:45:35.243Z,66.39
2019-01-19T10:48:07.234Z,66.32
2019-01-19T10:50:36.616Z,66.44
2019-01-19T10:53:06.146Z,66.59
2019-01-19T10:55:35.543Z,66.64
2019-01-19T10:58:04.934Z,66.78
2019-01-19T11:00:34.411Z,67.54
2019-01-19T11:03:04.040Z,67.14
2019-01-19T11:05:33.509Z,67.24
2019-01-19T11:08:04.243Z,66.97
2019-01-19T11:10:33.702Z,67.56
2019-01-19T11:13:03.068Z,67.24
2019-01-19T11:15:32.471Z,67.03
2019-01-19T11:18:01.870Z,65.53
2019-01-19T11:20:31.288Z,64.23
2019-01-19T11:23:01.266Z,63.83
2019-01-19T11:25:30.710Z,62.93
2019-01-19T11:28:00.087Z,62.84
2019-01-19T11:30:30.885Z,62.04
2019-01-19T11:33:00.636Z,62.45
2019-01-19T11:35:30.279Z,62.94
2019-01-19T11:37:59.710Z,63.51
2019-01-19T11:40:34.433Z,64.19
2019-01-19T11:43:03.912Z,64.35
2019-01-19T11:45:34.629Z,64.07
2019-01-19T11:48:04.133Z,64.47
2019-01-19T11:50:33.533Z,64.11
2019-01-19T11:53:02.899Z,63.86
2019-01-19T11:55:32.314Z,64.05
2019-01-19T11:58:03.561Z,63.70
2019-01-19T12:00:34.687Z,63.82
2019-01-19T12:03:04.550Z,64.32
2019-01-19T12:05:34.141Z,64.54
2019-01-19T12:08:03.600Z,65.31
2019-01-19T12:10:33.467Z,65.54
2019-01-19T12:13:02.855Z,65.59
2019-01-19T12:15:32.257Z,65.42
2019-01-19T12:18:01.732Z,66.00
2019-01-19T12:20:37.067Z,66.11
2019-01-19T12:23:06.733Z,66.38
2019-01-19T12:25:36.080Z,66.22
2019-01-19T12:28:05.594Z,66.07
2019-01-19T12:30:35.075Z,66.24
2019-01-19T12:33:04.695Z,65.87
2019-01-19T12:35:34.100Z,65.45
2019-01-19T12:38:03.613Z,65.15
2019-01-19T12:40:33.102Z,65.12
2019-01-19T12:43:08.674Z,65.00
2019-01-19T12:46:02.492Z,65.14
2019-01-19T12:48:31.949Z,64.98
2019-01-19T12:51:03.927Z,65.03
2019-01-19T12:53:33.295Z,65.28
2019-01-19T12:56:02.681Z,65.16
2019-01-19T12:58:32.050Z,65.10
2019-01-19T13:01:01.488Z,65.11
2019-01-19T13:03:30.904Z,65.15
2019-01-19T13:06:28.151Z,65.22
2019-01-19T13:08:57.522Z,65.81
2019-01-19T13:11:57.488Z,65.73
2019-01-19T13:14:27.189Z,65.74
2019-01-19T13:17:36.063Z,66.18
2019-01-19T13:20:31.574Z,66.37
2019-01-19T13:23:30.997Z,66.57
2019-01-19T13:26:15.877Z,66.48
2019-01-19T13:29:31.205Z,66.35
2019-01-19T13:32:44.853Z,66.64
2019-01-19T13:35:41.200Z,66.72
2019-01-19T13:38:41.752Z,66.63
2019-01-19T13:41:37.672Z,66.49
2019-01-19T13:45:06.413Z,66.74
2019-01-19T13:48:25.613Z,66.89
2019-01-19T13:51:35.858Z,67.02
2019-01-19T13:56:36.065Z,66.72
2019-01-19T13:59:41.454Z,66.65
2019-01-19T14:02:47.854Z,66.87
2019-01-19T14:05:42.445Z,66.94
2019-01-19T14:08:54.250Z,67.01
2019-01-19T14:11:56.366Z,66.78
2019-01-19T14:15:01.843Z,66.92
2019-01-19T14:17:55.955Z,67.00
2019-01-19T14:21:06.509Z,67.15
2019-01-19T14:24:05.831Z,67.05
2019-01-19T14:27:14.591Z,67.34
2019-01-19T14:30:19.603Z,67.47
2019-01-19T14:33:26.690Z,67.49
2019-01-19T14:36:20.269Z,67.77
2019-01-19T14:39:26.597Z,67.41
2019-01-19T14:42:56.248Z,67.26
2019-01-19T14:45:42.362Z,67.43
2019-01-19T14:48:45.005Z,67.76
2019-01-19T14:51:51.047Z,68.30
2019-01-19T14:55:22.528Z,68.93
2019-01-19T14:58:37.793Z,69.53
2019-01-19T15:03:50.043Z,70.07
2019-01-19T15:07:12.095Z,70.48
2019-01-19T15:10:12.491Z,70.65
2019-01-19T15:13:15.640Z,71.05
2019-01-19T15:16:50.094Z,71.15
2019-01-19T15:19:56.161Z,71.62
2019-01-19T15:22:55.342Z,72.02
2019-01-19T15:26:02.030Z,72.34
2019-01-19T15:29:00.600Z,72.38
2019-01-19T15:32:19.965Z,72.57
2019-01-19T15:38:12.296Z,73.10
2019-01-19T15:41:31.780Z,72.95
2019-01-19T15:44:51.315Z,73.03
2019-01-19T15:48:16.753Z,73.19
2019-01-19T15:51:39.095Z,74.04
2019-01-19T15:54:49.540Z,74.08
2019-01-19T15:57:45.849Z,75.12
2019-01-19T16:00:32.456Z,75.25
2019-01-19T16:03:13.730Z,75.60
2019-01-19T16:06:20.575Z,75.67
2019-01-19T16:09:24.683Z,75.75
2019-01-19T16:12:47.115Z,75.63
2019-01-19T16:16:03.450Z,75.22
2019-01-19T16:19:13.518Z,74.79
2019-01-19T16:22:04.253Z,74.33
2019-01-19T16:25:12.654Z,73.23
2019-01-19T16:28:00.539Z,71.92
2019-01-19T16:31:29.239Z,70.80
2019-01-19T16:34:48.352Z,70.24
2019-01-19T16:37:24.904Z,69.53
2019-01-19T16:40:29.897Z,67.57
2019-01-19T16:43:39.241Z,66.76
2019-01-19T16:46:51.261Z,65.24
2019-01-19T16:50:04.598Z,65.40
2019-01-19T16:53:09.692Z,63.96
2019-01-19T16:56:10.765Z,63.24
2019-01-19T16:59:20.081Z,62.52
2019-01-19T17:02:30.125Z,62.39
2019-01-19T17:05:26.651Z,61.63
2019-01-19T17:08:07.112Z,61.78
2019-01-19T17:11:05.350Z,61.99
2019-01-19T17:15:12.263Z,62.43
2019-01-19T17:18:13.452Z,61.98
2019-01-19T17:21:01.588Z,61.91
2019-01-19T17:24:06.076Z,64.71
2019-01-19T17:27:06.309Z,62.27
2019-01-19T17:30:17.371Z,62.48
2019-01-19T17:33:33.554Z,62.84
2019-01-19T17:36:33.876Z,63.26
2019-01-19T17:39:47.085Z,64.37
2019-01-19T17:42:28.198Z,64.72
2019-01-19T17:45:23.931Z,65.36
2019-01-19T17:48:29.161Z,66.56
2019-01-19T17:51:49.062Z,67.30
2019-01-19T17:55:01.230Z,68.21
2019-01-19T17:58:06.672Z,68.72
2019-01-19T18:01:17.985Z,69.31
2019-01-19T18:04:14.875Z,69.24
2019-01-19T18:07:23.940Z,69.60
2019-01-19T18:10:23.059Z,69.79
2019-01-19T18:13:27.137Z,69.66
2019-01-19T18:16:33.497Z,69.67
2019-01-19T18:19:29.841Z,69.47
2019-01-19T18:22:41.292Z,69.64
2019-01-19T18:26:02.587Z,70.06
2019-01-19T18:29:03.120Z,70.14
2019-01-19T18:32:10.028Z,70.16
2019-01-19T18:35:14.508Z,69.94
2019-01-19T18:38:25.021Z,69.87
2019-01-19T18:41:09.367Z,69.75
2019-01-19T18:44:11.008Z,69.73
2019-01-19T18:47:02.735Z,69.40
2019-01-19T18:50:28.306Z,69.60
2019-01-19T18:53:29.717Z,69.70
2019-01-19T18:56:34.422Z,69.97
2019-01-19T18:59:28.093Z,70.06
2019-01-19T19:02:49.188Z,70.24
2019-01-19T19:06:02.028Z,70.96
2019-01-19T19:09:02.184Z,70.91
2019-01-19T19:12:06.750Z,71.33
2019-01-19T19:15:10.917Z,71.75
2019-01-19T19:18:09.761Z,72.08
2019-01-19T19:21:23.194Z,72.89
2019-01-19T19:24:37.612Z,72.87
2019-01-19T19:27:36.493Z,74.03
2019-01-19T19:30:36.276Z,73.16
2019-01-19T19:33:37.186Z,73.36
2019-01-19T19:36:36.022Z,73.54
2019-01-19T19:39:52.538Z,73.60
2019-01-19T19:43:06.191Z,73.30
2019-01-19T19:45:56.855Z,73.08
2019-01-19T19:48:52.401Z,73.24
2019-01-19T19:51:58.555Z,73.35
2019-01-19T19:54:29.289Z,73.22
2019-01-19T19:56:59.293Z,73.29
2019-01-19T19:59:28.721Z,73.30
2019-01-19T20:01:58.098Z,73.21
2019-01-19T20:04:27.822Z,74.08
2019-01-19T20:06:57.723Z,74.13
2019-01-19T20:09:27.318Z,74.38
2019-01-19T20:12:05.821Z,74.42
2019-01-19T20:14:35.352Z,75.27
2019-01-19T20:17:04.962Z,76.26
2019-01-19T20:19:34.418Z,76.16
2019-01-19T20:22:06.598Z,76.98
2019-01-19T20:24:35.997Z,77.17
2019-01-19T20:27:06.470Z,77.55
2019-01-19T20:29:35.882Z,77.68
2019-01-19T20:32:05.518Z,77.75
2019-01-19T20:34:34.933Z,77.57
2019-01-19T20:37:04.442Z,77.93
2019-01-19T20:39:34.647Z,78.32
2019-01-19T20:42:04.000Z,78.53
2019-01-19T20:44:33.429Z,78.59
2019-01-19T20:47:02.930Z,78.77
2019-01-19T20:49:32.309Z,78.89
2019-01-19T20:52:01.691Z,78.53
2019-01-19T20:54:31.089Z,78.43
2019-01-19T20:57:00.453Z,78.54
2019-01-19T20:59:29.877Z,78.13
2019-01-19T21:01:59.352Z,78.55
2019-01-19T21:04:28.772Z,78.87
2019-01-19T21:06:58.225Z,79.72
2019-01-19T21:09:27.733Z,80.40
2019-01-19T21:11:57.159Z,80.77
2019-01-19T21:14:26.584Z,80.56
2019-01-19T21:16:58.966Z,80.43
2019-01-19T21:19:29.402Z,80.70
2019-01-19T21:21:58.776Z,80.70
2019-01-19T21:24:28.289Z,80.36
2019-01-19T21:26:57.813Z,79.90
2019-01-19T21:29:27.191Z,79.55
2019-01-19T21:31:56.550Z,79.47
2019-01-19T21:34:26.438Z,79.21
2019-01-19T21:36:55.866Z,78.98
2019-01-19T21:39:25.272Z,79.05
2019-01-19T21:41:54.617Z,79.20
2019-01-19T21:44:24.008Z,79.22
2019-01-19T21:46:53.439Z,79.08
2019-01-19T21:49:22.814Z,79.11
2019-01-19T21:51:52.202Z,79.03
2019-01-19T21:54:21.631Z,79.45
2019-01-19T21:56:51.076Z,79.44
2019-01-19T21:59:20.512Z,79.97
2019-01-19T22:01:49.912Z,79.85
2019-01-19T22:04:19.354Z,80.20
2019-01-19T22:06:48.845Z,80.21
2019-01-19T22:09:18.200Z,80.07
2019-01-19T22:11:47.604Z,80.20
2019-01-19T22:14:17.024Z,80.80
2019-01-19T22:16:46.451Z,80.51
2019-01-19T22:19:15.858Z,80.72
2019-01-19T22:21:45.310Z,80.78
2019-01-19T22:24:14.651Z,81.04
2019-01-19T22:26:45.564Z,81.09
2019-01-19T22:29:14.969Z,81.43
2019-01-19T22:31:44.357Z,81.34
2019-01-19T22:34:13.771Z,81.51
2019-01-19T22:36:43.150Z,81.52
2019-01-19T22:39:12.534Z,81.67
2019-01-19T22:41:41.944Z,81.79
2019-01-19T22:44:11.339Z,81.74
2019-01-19T22:46:40.740Z,81.61
2019-01-19T22:49:10.198Z,81.37
2019-01-19T22:51:39.646Z,81.21
2019-01-19T22:54:09.149Z,81.64
2019-01-19T22:56:38.540Z,81.82
2019-01-19T22:59:07.901Z,81.77
2019-01-19T23:01:48.615Z,81.64
2019-01-19T23:04:17.965Z,81.64
2019-01-19T23:06:47.337Z,81.42
2019-01-19T23:09:16.666Z,81.51
2019-01-19T23:11:46.005Z,82.10
2019-01-19T23:16:28.117Z,82.49
2019-01-19T23:18:57.435Z,82.48
2019-01-19T23:21:26.764Z,82.47
2019-01-19T23:23:56.120Z,82.58
2019-01-19T23:26:26.872Z,83.42
2019-01-19T23:28:56.260Z,83.73
2019-01-19T23:31:28.482Z,83.69
2019-01-19T23:33:57.855Z,83.55
2019-01-19T23:36:28.427Z,83.65
2019-01-19T23:38:57.860Z,83.98
2019-01-19T23:41:27.220Z,83.82
2019-01-19T23:43:56.687Z,83.73
2019-01-19T23:46:26.622Z,83.63
2019-01-19T23:48:56.019Z,83.34
2019-01-19T23:51:26.446Z,83.56
2019-01-19T23:53:55.793Z,83.54
2019-01-19T23:56:25.156Z,83.44
2019-01-19T23:58:54.517Z,83.24
